sensor_id;sensor_type;location;lat;lon;timestamp;pressure;altitude;pressure_sealevel;temperature;humidity
64080;BME280;51042;49.696;10.808;2023-05-01T00:00:02;98574.78;;;8.97;82.12
64080;BME280;51042;49.696;10.808;2023-05-01T00:02:28;98572.03;;;8.97;82.25
64080;BME280;51042;49.696;10.808;2023-05-01T00:04:54;98569.72;;;8.96;81.95
64080;BME280;51042;49.696;10.808;2023-05-01T00:07:20;98573.22;;;8.96;82.56
64080;BME280;51042;49.696;10.808;2023-05-01T00:09:45;98565.56;;;8.88;82.29
64080;BME280;51042;49.696;10.808;2023-05-01T00:12:11;98555.09;;;8.83;83.29
64080;BME280;51042;49.696;10.808;2023-05-01T00:14:37;98559.03;;;8.82;83.59
64080;BME280;51042;49.696;10.808;2023-05-01T00:17:02;98555.94;;;8.80;83.79
64080;BME280;51042;49.696;10.808;2023-05-01T00:19:27;98549.78;;;8.76;83.48
64080;BME280;51042;49.696;10.808;2023-05-01T00:21:53;98546.41;;;8.68;84.41
64080;BME280;51042;49.696;10.808;2023-05-01T00:24:18;98542.59;;;8.62;85.63
64080;BME280;51042;49.696;10.808;2023-05-01T00:26:43;98548.56;;;8.57;86.58
64080;BME280;51042;49.696;10.808;2023-05-01T00:29:09;98543.91;;;8.54;86.62
64080;BME280;51042;49.696;10.808;2023-05-01T00:31:34;98538.50;;;8.50;86.92
64080;BME280;51042;49.696;10.808;2023-05-01T00:34:00;98535.81;;;8.47;86.88
64080;BME280;51042;49.696;10.808;2023-05-01T00:36:26;98526.00;;;8.49;85.55
64080;BME280;51042;49.696;10.808;2023-05-01T00:38:51;98531.84;;;8.51;85.24
64080;BME280;51042;49.696;10.808;2023-05-01T00:41:16;98530.31;;;8.50;85.74
64080;BME280;51042;49.696;10.808;2023-05-01T00:43:41;98524.53;;;8.45;85.17
64080;BME280;51042;49.696;10.808;2023-05-01T00:46:07;98521.03;;;8.44;85.77
64080;BME280;51042;49.696;10.808;2023-05-01T00:48:33;98519.13;;;8.41;85.93
64080;BME280;51042;49.696;10.808;2023-05-01T00:50:59;98510.97;;;8.38;85.56
64080;BME280;51042;49.696;10.808;2023-05-01T00:53:25;98517.28;;;8.35;86.04
64080;BME280;51042;49.696;10.808;2023-05-01T00:55:52;98517.28;;;8.35;86.37
64080;BME280;51042;49.696;10.808;2023-05-01T00:58:20;98509.84;;;8.35;86.19
64080;BME280;51042;49.696;10.808;2023-05-01T01:00:45;98512.94;;;8.37;85.74
64080;BME280;51042;49.696;10.808;2023-05-01T01:03:11;98510.91;;;8.41;84.84
64080;BME280;51042;49.696;10.808;2023-05-01T01:05:42;98500.75;;;8.42;84.25
64080;BME280;51042;49.696;10.808;2023-05-01T01:11:03;98501.22;;;8.37;82.90
64080;BME280;51042;49.696;10.808;2023-05-01T01:13:42;98502.72;;;8.41;82.75
64080;BME280;51042;49.696;10.808;2023-05-01T01:16:18;98494.94;;;8.40;82.48
64080;BME280;51042;49.696;10.808;2023-05-01T01:18:49;98492.63;;;8.38;81.95
64080;BME280;51042;49.696;10.808;2023-05-01T01:24:02;98497.34;;;8.34;82.28
64080;BME280;51042;49.696;10.808;2023-05-01T01:35:19;98486.38;;;8.38;80.61
64080;BME280;51042;49.696;10.808;2023-05-01T01:38:00;98487.56;;;8.37;80.82
64080;BME280;51042;49.696;10.808;2023-05-01T01:40:44;98483.28;;;8.36;80.52
64080;BME280;51042;49.696;10.808;2023-05-01T01:43:17;98482.88;;;8.37;79.97
64080;BME280;51042;49.696;10.808;2023-05-01T01:45:46;98480.53;;;8.36;80.76
64080;BME280;51042;49.696;10.808;2023-05-01T01:48:24;98484.81;;;8.37;79.70
64080;BME280;51042;49.696;10.808;2023-05-01T01:50:54;98482.56;;;8.32;79.85
64080;BME280;51042;49.696;10.808;2023-05-01T01:53:23;98480.63;;;8.29;79.84
64080;BME280;51042;49.696;10.808;2023-05-01T01:55:52;98477.47;;;8.34;78.27
64080;BME280;51042;49.696;10.808;2023-05-01T01:58:18;98475.44;;;8.38;78.00
64080;BME280;51042;49.696;10.808;2023-05-01T02:00:50;98467.66;;;8.36;77.94
64080;BME280;51042;49.696;10.808;2023-05-01T02:03:16;98460.22;;;8.37;77.71
64080;BME280;51042;49.696;10.808;2023-05-01T02:05:43;98457.91;;;8.35;77.79
64080;BME280;51042;49.696;10.808;2023-05-01T02:08:10;98455.66;;;8.30;78.14
64080;BME280;51042;49.696;10.808;2023-05-01T02:10:39;98453.00;;;8.23;78.67
64080;BME280;51042;49.696;10.808;2023-05-01T02:13:06;98451.78;;;8.28;77.84
64080;BME280;51042;49.696;10.808;2023-05-01T02:15:33;98461.13;;;8.30;77.66
64080;BME280;51042;49.696;10.808;2023-05-01T02:18:02;98452.13;;;8.30;77.23
64080;BME280;51042;49.696;10.808;2023-05-01T02:20:30;98448.31;;;8.24;76.98
64080;BME280;51042;49.696;10.808;2023-05-01T02:22:57;98442.84;;;8.24;77.30
64080;BME280;51042;49.696;10.808;2023-05-01T02:25:23;98448.69;;;8.26;76.53
64080;BME280;51042;49.696;10.808;2023-05-01T02:28:05;98445.28;;;8.18;77.40
64080;BME280;51042;49.696;10.808;2023-05-01T02:30:35;98447.81;;;8.09;78.37
64080;BME280;51042;49.696;10.808;2023-05-01T02:33:01;98439.31;;;8.03;78.89
64080;BME280;51042;49.696;10.808;2023-05-01T02:35:27;98437.06;;;7.98;79.17
64080;BME280;51042;49.696;10.808;2023-05-01T02:37:52;98436.00;;;7.92;79.61
64080;BME280;51042;49.696;10.808;2023-05-01T02:40:17;98437.19;;;7.91;79.79
64080;BME280;51042;49.696;10.808;2023-05-01T02:42:43;98433.78;;;7.84;80.15
64080;BME280;51042;49.696;10.808;2023-05-01T02:45:13;98437.41;;;7.77;83.58
64080;BME280;51042;49.696;10.808;2023-05-01T02:47:45;98435.25;;;7.65;87.69
64080;BME280;51042;49.696;10.808;2023-05-01T02:50:14;98434.56;;;7.61;90.48
64080;BME280;51042;49.696;10.808;2023-05-01T02:52:40;98430.38;;;7.53;90.25
64080;BME280;51042;49.696;10.808;2023-05-01T02:55:07;98435.16;;;7.45;91.99
64080;BME280;51042;49.696;10.808;2023-05-01T02:57:34;98423.59;;;7.37;92.90
64080;BME280;51042;49.696;10.808;2023-05-01T02:59:59;98431.09;;;7.30;92.88
64080;BME280;51042;49.696;10.808;2023-05-01T03:02:24;98437.06;;;7.21;94.23
64080;BME280;51042;49.696;10.808;2023-05-01T03:04:50;98433.69;;;7.14;94.75
64080;BME280;51042;49.696;10.808;2023-05-01T03:07:16;98429.50;;;7.06;96.19
64080;BME280;51042;49.696;10.808;2023-05-01T03:09:41;98434.63;;;7.00;96.20
64080;BME280;51042;49.696;10.808;2023-05-01T03:12:06;98426.53;;;6.93;97.04
64080;BME280;51042;49.696;10.808;2023-05-01T03:14:32;98425.44;;;6.90;98.61
64080;BME280;51042;49.696;10.808;2023-05-01T03:16:57;98421.16;;;6.86;98.72
64080;BME280;51042;49.696;10.808;2023-05-01T03:19:22;98419.69;;;6.81;98.32
64080;BME280;51042;49.696;10.808;2023-05-01T03:21:48;98426.75;;;6.79;99.73
64080;BME280;51042;49.696;10.808;2023-05-01T03:24:13;98424.81;;;6.76;100.00
64080;BME280;51042;49.696;10.808;2023-05-01T03:26:39;98419.38;;;6.76;100.00
64080;BME280;51042;49.696;10.808;2023-05-01T03:29:04;98417.09;;;6.71;100.00
64080;BME280;51042;49.696;10.808;2023-05-01T03:31:29;98410.50;;;6.68;100.00
64080;BME280;51042;49.696;10.808;2023-05-01T03:33:54;98414.75;;;6.69;100.00
64080;BME280;51042;49.696;10.808;2023-05-01T03:36:20;98420.63;;;6.68;100.00
64080;BME280;51042;49.696;10.808;2023-05-01T03:38:49;98426.91;;;6.65;100.00
64080;BME280;51042;49.696;10.808;2023-05-01T03:41:14;98422.63;;;6.64;100.00
64080;BME280;51042;49.696;10.808;2023-05-01T03:43:39;98417.22;;;6.60;100.00
64080;BME280;51042;49.696;10.808;2023-05-01T03:46:05;98413.31;;;6.61;100.00
64080;BME280;51042;49.696;10.808;2023-05-01T03:48:30;98412.94;;;6.59;100.00
64080;BME280;51042;49.696;10.808;2023-05-01T03:50:55;98409.06;;;6.56;100.00
64080;BME280;51042;49.696;10.808;2023-05-01T03:53:22;98404.06;;;6.55;100.00
64080;BME280;51042;49.696;10.808;2023-05-01T03:55:47;98406.78;;;6.55;100.00
64080;BME280;51042;49.696;10.808;2023-05-01T03:58:13;98407.19;;;6.50;100.00
64080;BME280;51042;49.696;10.808;2023-05-01T04:00:38;98405.25;;;6.50;100.00
64080;BME280;51042;49.696;10.808;2023-05-01T04:03:03;98403.31;;;6.51;100.00
64080;BME280;51042;49.696;10.808;2023-05-01T04:05:29;98409.13;;;6.53;100.00
64080;BME280;51042;49.696;10.808;2023-05-01T04:07:55;98406.34;;;6.56;100.00
64080;BME280;51042;49.696;10.808;2023-05-01T04:10:21;98414.06;;;6.62;100.00
64080;BME280;51042;49.696;10.808;2023-05-01T04:12:46;98412.44;;;6.68;100.00
64080;BME280;51042;49.696;10.808;2023-05-01T04:15:12;98409.63;;;6.75;100.00
64080;BME280;51042;49.696;10.808;2023-05-01T04:17:38;98397.09;;;6.81;100.00
64080;BME280;51042;49.696;10.808;2023-05-01T04:20:03;98402.09;;;6.86;100.00
64080;BME280;51042;49.696;10.808;2023-05-01T04:22:30;98400.44;;;6.92;100.00
64080;BME280;51042;49.696;10.808;2023-05-01T04:24:56;98403.06;;;7.03;100.00
64080;BME280;51042;49.696;10.808;2023-05-01T04:27:21;98398.63;;;7.12;100.00
64080;BME280;51042;49.696;10.808;2023-05-01T04:29:47;98397.28;;;7.24;99.26
64080;BME280;51042;49.696;10.808;2023-05-01T04:32:12;98398.66;;;7.35;97.26
64080;BME280;51042;49.696;10.808;2023-05-01T04:34:37;98395.28;;;7.51;95.86
64080;BME280;51042;49.696;10.808;2023-05-01T04:37:03;98392.22;;;7.72;94.18
64080;BME280;51042;49.696;10.808;2023-05-01T04:39:31;98389.06;;;7.97;95.04
64080;BME280;51042;49.696;10.808;2023-05-01T04:41:56;98399.78;;;8.31;93.83
64080;BME280;51042;49.696;10.808;2023-05-01T04:44:21;98392.69;;;8.73;90.27
64080;BME280;51042;49.696;10.808;2023-05-01T04:46:47;98397.09;;;9.23;86.33
64080;BME280;51042;49.696;10.808;2023-05-01T04:49:12;98397.31;;;9.64;82.77
64080;BME280;51042;49.696;10.808;2023-05-01T04:51:38;98394.75;;;10.02;80.10
64080;BME280;51042;49.696;10.808;2023-05-01T04:54:03;98390.28;;;10.53;78.35
64080;BME280;51042;49.696;10.808;2023-05-01T04:56:29;98393.56;;;11.28;73.79
64080;BME280;51042;49.696;10.808;2023-05-01T04:58:54;98389.91;;;11.81;70.00
64080;BME280;51042;49.696;10.808;2023-05-01T05:01:19;98388.72;;;12.17;69.47
64080;BME280;51042;49.696;10.808;2023-05-01T05:03:44;98394.25;;;12.82;64.50
64080;BME280;51042;49.696;10.808;2023-05-01T05:06:10;98389.94;;;13.34;62.54
64080;BME280;51042;49.696;10.808;2023-05-01T05:08:35;98402.09;;;13.15;63.42
64080;BME280;51042;49.696;10.808;2023-05-01T05:11:01;98389.75;;;12.76;64.03
64080;BME280;51042;49.696;10.808;2023-05-01T05:13:26;98395.84;;;12.71;65.36
64080;BME280;51042;49.696;10.808;2023-05-01T05:15:52;98394.81;;;13.79;60.54
64080;BME280;51042;49.696;10.808;2023-05-01T05:18:18;98385.22;;;15.26;55.55
64080;BME280;51042;49.696;10.808;2023-05-01T05:20:43;98381.41;;;16.27;51.92
64080;BME280;51042;49.696;10.808;2023-05-01T05:23:09;98385.13;;;16.63;51.27
64080;BME280;51042;49.696;10.808;2023-05-01T05:25:34;98384.97;;;16.66;50.21
64080;BME280;51042;49.696;10.808;2023-05-01T05:27:59;98384.28;;;15.71;52.47
64080;BME280;51042;49.696;10.808;2023-05-01T05:30:25;98384.09;;;14.99;52.82
64080;BME280;51042;49.696;10.808;2023-05-01T05:32:51;98394.56;;;14.31;55.10
64080;BME280;51042;49.696;10.808;2023-05-01T05:35:16;98387.41;;;14.52;54.44
64080;BME280;51042;49.696;10.808;2023-05-01T05:37:41;98388.16;;;15.22;53.28
64080;BME280;51042;49.696;10.808;2023-05-01T05:40:07;98388.72;;;16.16;51.25
64080;BME280;51042;49.696;10.808;2023-05-01T05:42:33;98389.38;;;16.34;48.49
64080;BME280;51042;49.696;10.808;2023-05-01T05:44:58;98387.69;;;15.66;50.53
64080;BME280;51042;49.696;10.808;2023-05-01T05:47:23;98382.94;;;15.24;51.13
64080;BME280;51042;49.696;10.808;2023-05-01T05:49:49;98389.38;;;14.70;51.68
64080;BME280;51042;49.696;10.808;2023-05-01T05:52:14;98386.41;;;13.92;53.25
64080;BME280;51042;49.696;10.808;2023-05-01T05:54:40;98380.22;;;13.51;54.34
64080;BME280;51042;49.696;10.808;2023-05-01T05:57:05;98379.41;;;13.11;55.73
64080;BME280;51042;49.696;10.808;2023-05-01T05:59:30;98375.72;;;12.83;56.67
64080;BME280;51042;49.696;10.808;2023-05-01T06:01:56;98381.16;;;12.95;56.55
64080;BME280;51042;49.696;10.808;2023-05-01T06:04:22;98377.59;;;12.86;56.54
64080;BME280;51042;49.696;10.808;2023-05-01T06:06:48;98372.09;;;12.64;57.60
64080;BME280;51042;49.696;10.808;2023-05-01T06:09:13;98375.75;;;12.61;57.82
64080;BME280;51042;49.696;10.808;2023-05-01T06:11:39;98372.59;;;12.28;56.49
64080;BME280;51042;49.696;10.808;2023-05-01T06:14:04;98375.50;;;11.90;57.98
64080;BME280;51042;49.696;10.808;2023-05-01T06:16:29;98368.59;;;12.20;59.26
64080;BME280;51042;49.696;10.808;2023-05-01T06:18:55;98371.63;;;12.87;56.31
64080;BME280;51042;49.696;10.808;2023-05-01T06:21:21;98363.91;;;12.73;56.59
64080;BME280;51042;49.696;10.808;2023-05-01T06:23:46;98356.34;;;12.64;54.25
64080;BME280;51042;49.696;10.808;2023-05-01T06:26:11;98355.41;;;12.37;56.30
64080;BME280;51042;49.696;10.808;2023-05-01T06:28:37;98358.50;;;12.39;56.56
64080;BME280;51042;49.696;10.808;2023-05-01T06:31:02;98359.75;;;12.03;56.17
64080;BME280;51042;49.696;10.808;2023-05-01T06:33:27;98358.94;;;12.15;58.37
64080;BME280;51042;49.696;10.808;2023-05-01T06:35:52;98353.91;;;12.23;56.43
64080;BME280;51042;49.696;10.808;2023-05-01T06:38:18;98347.91;;;11.81;56.76
64080;BME280;51042;49.696;10.808;2023-05-01T06:40:44;98347.63;;;11.54;57.36
64080;BME280;51042;49.696;10.808;2023-05-01T06:43:10;98349.28;;;11.38;58.33
64080;BME280;51042;49.696;10.808;2023-05-01T06:45:36;98351.38;;;11.34;57.46
64080;BME280;51042;49.696;10.808;2023-05-01T06:48:03;98349.97;;;11.30;58.12
64080;BME280;51042;49.696;10.808;2023-05-01T06:50:29;98346.13;;;11.02;58.80
64080;BME280;51042;49.696;10.808;2023-05-01T06:52:54;98347.88;;;11.09;59.80
64080;BME280;51042;49.696;10.808;2023-05-01T06:55:19;98339.31;;;11.32;60.82
64080;BME280;51042;49.696;10.808;2023-05-01T06:57:45;98327.06;;;11.45;60.13
64080;BME280;51042;49.696;10.808;2023-05-01T07:00:10;98327.94;;;11.55;58.69
64080;BME280;51042;49.696;10.808;2023-05-01T07:02:36;98331.31;;;11.72;58.95
64080;BME280;51042;49.696;10.808;2023-05-01T07:05:02;98340.72;;;11.96;57.61
64080;BME280;51042;49.696;10.808;2023-05-01T07:07:27;98336.63;;;12.01;57.08
64080;BME280;51042;49.696;10.808;2023-05-01T07:09:54;98342.81;;;11.92;56.79
64080;BME280;51042;49.696;10.808;2023-05-01T07:12:20;98332.81;;;12.20;55.72
64080;BME280;51042;49.696;10.808;2023-05-01T07:14:46;98336.47;;;12.39;55.35
64080;BME280;51042;49.696;10.808;2023-05-01T07:17:11;98333.69;;;12.60;55.38
64080;BME280;51042;49.696;10.808;2023-05-01T07:19:37;98332.66;;;12.67;54.22
64080;BME280;51042;49.696;10.808;2023-05-01T07:22:02;98334.16;;;12.90;54.52
64080;BME280;51042;49.696;10.808;2023-05-01T07:24:28;98332.34;;;12.96;55.20
64080;BME280;51042;49.696;10.808;2023-05-01T07:26:54;98327.59;;;12.96;54.24
64080;BME280;51042;49.696;10.808;2023-05-01T07:29:20;98325.72;;;13.15;54.58
64080;BME280;51042;49.696;10.808;2023-05-01T07:31:45;98324.44;;;13.47;52.90
64080;BME280;51042;49.696;10.808;2023-05-01T07:34:12;98324.13;;;13.45;53.12
64080;BME280;51042;49.696;10.808;2023-05-01T07:36:37;98320.63;;;13.54;52.78
64080;BME280;51042;49.696;10.808;2023-05-01T07:39:03;98315.13;;;13.63;52.54
64080;BME280;51042;49.696;10.808;2023-05-01T07:41:29;98304.41;;;13.83;51.92
64080;BME280;51042;49.696;10.808;2023-05-01T07:43:57;98310.22;;;14.12;51.34
64080;BME280;51042;49.696;10.808;2023-05-01T07:46:22;98306.41;;;14.46;50.66
64080;BME280;51042;49.696;10.808;2023-05-01T07:48:48;98307.59;;;14.36;50.97
64080;BME280;51042;49.696;10.808;2023-05-01T07:51:13;98303.19;;;14.29;50.84
64080;BME280;51042;49.696;10.808;2023-05-01T07:53:38;98294.91;;;14.48;51.25
64080;BME280;51042;49.696;10.808;2023-05-01T07:56:06;98309.63;;;14.26;50.77
64080;BME280;51042;49.696;10.808;2023-05-01T07:58:33;98307.16;;;14.19;50.40
64080;BME280;51042;49.696;10.808;2023-05-01T08:00:59;98305.94;;;14.20;50.73
64080;BME280;51042;49.696;10.808;2023-05-01T08:03:26;98298.84;;;14.56;50.79
64080;BME280;51042;49.696;10.808;2023-05-01T08:05:52;98294.72;;;14.51;50.41
64080;BME280;51042;49.696;10.808;2023-05-01T08:08:17;98292.91;;;14.21;50.10
64080;BME280;51042;49.696;10.808;2023-05-01T08:10:45;98289.69;;;13.95;50.52
64080;BME280;51042;49.696;10.808;2023-05-01T08:13:11;98284.34;;;14.01;51.12
64080;BME280;51042;49.696;10.808;2023-05-01T08:15:36;98280.16;;;14.32;50.37
64080;BME280;51042;49.696;10.808;2023-05-01T08:18:03;98285.69;;;14.32;51.67
64080;BME280;51042;49.696;10.808;2023-05-01T08:20:28;98284.91;;;14.32;50.88
64080;BME280;51042;49.696;10.808;2023-05-01T08:22:54;98280.34;;;14.47;50.12
64080;BME280;51042;49.696;10.808;2023-05-01T08:25:19;98279.34;;;14.68;50.28
64080;BME280;51042;49.696;10.808;2023-05-01T08:27:45;98280.13;;;14.60;50.21
64080;BME280;51042;49.696;10.808;2023-05-01T08:30:11;98274.63;;;14.51;50.16
64080;BME280;51042;49.696;10.808;2023-05-01T08:32:37;98282.41;;;14.70;50.20
64080;BME280;51042;49.696;10.808;2023-05-01T08:35:02;98276.47;;;15.29;49.25
64080;BME280;51042;49.696;10.808;2023-05-01T08:37:27;98276.34;;;15.95;48.73
64080;BME280;51042;49.696;10.808;2023-05-01T08:39:53;98273.06;;;15.58;49.17
64080;BME280;51042;49.696;10.808;2023-05-01T08:42:19;98262.69;;;16.06;47.74
64080;BME280;51042;49.696;10.808;2023-05-01T08:44:44;98270.47;;;15.78;47.86
64080;BME280;51042;49.696;10.808;2023-05-01T08:47:16;98261.75;;;16.09;47.61
64080;BME280;51042;49.696;10.808;2023-05-01T08:49:43;98261.75;;;16.09;48.16
64080;BME280;51042;49.696;10.808;2023-05-01T08:52:10;98265.00;;;16.81;48.66
64080;BME280;51042;49.696;10.808;2023-05-01T08:54:38;98262.44;;;16.77;46.11
64080;BME280;51042;49.696;10.808;2023-05-01T08:57:06;98264.75;;;16.64;46.97
64080;BME280;51042;49.696;10.808;2023-05-01T08:59:34;98268.94;;;17.24;47.69
64080;BME280;51042;49.696;10.808;2023-05-01T09:02:00;98267.03;;;17.70;45.72
64080;BME280;51042;49.696;10.808;2023-05-01T09:04:30;98268.91;;;17.03;45.43
64080;BME280;51042;49.696;10.808;2023-05-01T09:06:57;98268.84;;;16.54;47.44
64080;BME280;51042;49.696;10.808;2023-05-01T09:09:24;98262.75;;;16.64;46.70
64080;BME280;51042;49.696;10.808;2023-05-01T09:11:50;98267.69;;;16.46;46.58
64080;BME280;51042;49.696;10.808;2023-05-01T09:14:18;98257.00;;;16.24;47.35
64080;BME280;51042;49.696;10.808;2023-05-01T09:16:43;98264.47;;;16.62;46.79
64080;BME280;51042;49.696;10.808;2023-05-01T09:19:08;98262.56;;;16.68;46.26
64080;BME280;51042;49.696;10.808;2023-05-01T09:21:34;98264.53;;;16.23;47.44
64080;BME280;51042;49.696;10.808;2023-05-01T09:23:59;98261.31;;;16.54;47.56
64080;BME280;51042;49.696;10.808;2023-05-01T09:26:25;98258.59;;;16.89;47.18
64080;BME280;51042;49.696;10.808;2023-05-01T09:28:51;98258.72;;;16.80;47.51
64080;BME280;51042;49.696;10.808;2023-05-01T09:31:22;98267.09;;;16.27;48.31
64080;BME280;51042;49.696;10.808;2023-05-01T09:33:54;98256.44;;;16.20;48.28
64080;BME280;51042;49.696;10.808;2023-05-01T09:36:21;98260.75;;;16.80;47.15
64080;BME280;51042;49.696;10.808;2023-05-01T09:38:48;98260.50;;;16.98;47.18
64080;BME280;51042;49.696;10.808;2023-05-01T09:41:13;98262.31;;;17.01;47.25
64080;BME280;51042;49.696;10.808;2023-05-01T09:43:39;98265.00;;;17.30;48.06
64080;BME280;51042;49.696;10.808;2023-05-01T09:46:06;98263.66;;;17.61;47.64
64080;BME280;51042;49.696;10.808;2023-05-01T09:48:33;98256.59;;;17.80;46.25
64080;BME280;51042;49.696;10.808;2023-05-01T09:50:59;98261.69;;;16.77;48.53
64080;BME280;51042;49.696;10.808;2023-05-01T09:54:00;98265.91;;;16.72;49.05
64080;BME280;51042;49.696;10.808;2023-05-01T09:56:21;98261.38;;;16.74;48.64
64080;BME280;51042;49.696;10.808;2023-05-01T09:58:50;98262.22;;;16.95;48.74
64080;BME280;51042;49.696;10.808;2023-05-01T10:01:16;98262.84;;;16.70;47.46
64080;BME280;51042;49.696;10.808;2023-05-01T10:03:43;98266.34;;;16.12;48.81
64080;BME280;51042;49.696;10.808;2023-05-01T10:06:10;98253.91;;;15.92;50.83
64080;BME280;51042;49.696;10.808;2023-05-01T10:11:11;98251.22;;;15.83;51.34
64080;BME280;51042;49.696;10.808;2023-05-01T10:13:36;98249.91;;;15.93;50.15
64080;BME280;51042;49.696;10.808;2023-05-01T10:16:01;98247.22;;;15.84;51.39
64080;BME280;51042;49.696;10.808;2023-05-01T10:18:31;98253.03;;;15.86;51.21
64080;BME280;51042;49.696;10.808;2023-05-01T10:20:58;98246.47;;;15.99;51.26
64080;BME280;51042;49.696;10.808;2023-05-01T10:23:24;98253.00;;;15.72;51.04
64080;BME280;51042;49.696;10.808;2023-05-01T10:25:49;98252.19;;;15.57;52.29
64080;BME280;51042;49.696;10.808;2023-05-01T10:28:18;98249.28;;;15.51;52.70
64080;BME280;51042;49.696;10.808;2023-05-01T10:30:44;98250.38;;;15.54;54.21
64080;BME280;51042;49.696;10.808;2023-05-01T10:33:12;98253.53;;;15.61;54.80
64080;BME280;51042;49.696;10.808;2023-05-01T10:35:38;98260.34;;;15.51;58.48
64080;BME280;51042;49.696;10.808;2023-05-01T10:38:06;98262.69;;;15.20;61.49
64080;BME280;51042;49.696;10.808;2023-05-01T10:43:22;98256.91;;;14.76;71.35
64080;BME280;51042;49.696;10.808;2023-05-01T10:45:53;98248.94;;;14.68;73.23
64080;BME280;51042;49.696;10.808;2023-05-01T10:53:37;98240.94;;;14.28;79.49
64080;BME280;51042;49.696;10.808;2023-05-01T10:56:04;98240.00;;;14.13;83.72
64080;BME280;51042;49.696;10.808;2023-05-01T11:03:58;98240.97;;;13.92;83.39
64080;BME280;51042;49.696;10.808;2023-05-01T11:06:24;98241.72;;;14.11;79.30
64080;BME280;51042;49.696;10.808;2023-05-01T11:08:50;98245.09;;;14.15;80.18
64080;BME280;51042;49.696;10.808;2023-05-01T11:13:55;98245.56;;;13.86;88.14
64080;BME280;51042;49.696;10.808;2023-05-01T11:19:01;98251.22;;;14.01;86.13
64080;BME280;51042;49.696;10.808;2023-05-01T11:21:30;98259.34;;;13.77;88.61
64080;BME280;51042;49.696;10.808;2023-05-01T11:24:04;98266.09;;;13.39;95.84
64080;BME280;51042;49.696;10.808;2023-05-01T11:26:31;98263.41;;;13.18;100.00
64080;BME280;51042;49.696;10.808;2023-05-01T11:28:57;98264.88;;;13.00;100.00
64080;BME280;51042;49.696;10.808;2023-05-01T11:31:24;98261.78;;;12.89;100.00
64080;BME280;51042;49.696;10.808;2023-05-01T11:33:51;98264.63;;;12.77;100.00
64080;BME280;51042;49.696;10.808;2023-05-01T11:36:17;98272.34;;;12.51;100.00
64080;BME280;51042;49.696;10.808;2023-05-01T11:38:50;98271.09;;;12.21;100.00
64080;BME280;51042;49.696;10.808;2023-05-01T11:41:25;98282.09;;;12.21;100.00
64080;BME280;51042;49.696;10.808;2023-05-01T11:43:55;98285.03;;;12.26;100.00
64080;BME280;51042;49.696;10.808;2023-05-01T11:46:25;98284.94;;;12.17;100.00
64080;BME280;51042;49.696;10.808;2023-05-01T11:48:55;98279.97;;;12.03;100.00
64080;BME280;51042;49.696;10.808;2023-05-01T11:51:22;98279.91;;;11.94;100.00
64080;BME280;51042;49.696;10.808;2023-05-01T11:54:25;98282.06;;;11.99;100.00
64080;BME280;51042;49.696;10.808;2023-05-01T11:56:43;98279.13;;;11.94;100.00
64080;BME280;51042;49.696;10.808;2023-05-01T11:59:09;98278.53;;;11.99;100.00
64080;BME280;51042;49.696;10.808;2023-05-01T12:01:39;98275.94;;;11.95;100.00
64080;BME280;51042;49.696;10.808;2023-05-01T12:04:06;98278.88;;;12.01;100.00
64080;BME280;51042;49.696;10.808;2023-05-01T12:06:39;98280.16;;;12.09;100.00
64080;BME280;51042;49.696;10.808;2023-05-01T12:09:22;98284.13;;;12.08;100.00
64080;BME280;51042;49.696;10.808;2023-05-01T12:11:50;98284.06;;;12.20;100.00
64080;BME280;51042;49.696;10.808;2023-05-01T12:14:16;98290.84;;;12.07;100.00
64080;BME280;51042;49.696;10.808;2023-05-01T12:16:43;98287.84;;;12.14;100.00
64080;BME280;51042;49.696;10.808;2023-05-01T12:19:09;98288.28;;;12.12;100.00
64080;BME280;51042;49.696;10.808;2023-05-01T12:21:36;98294.50;;;12.25;100.00
64080;BME280;51042;49.696;10.808;2023-05-01T12:26:41;98287.81;;;12.36;100.00
64080;BME280;51042;49.696;10.808;2023-05-01T12:29:10;98289.38;;;12.37;100.00
64080;BME280;51042;49.696;10.808;2023-05-01T12:31:36;98293.84;;;12.43;100.00
64080;BME280;51042;49.696;10.808;2023-05-01T12:34:09;98288.50;;;12.49;100.00
64080;BME280;51042;49.696;10.808;2023-05-01T12:36:35;98290.94;;;12.47;100.00
64080;BME280;51042;49.696;10.808;2023-05-01T12:39:02;98294.81;;;12.58;100.00
64080;BME280;51042;49.696;10.808;2023-05-01T12:41:39;98290.94;;;12.47;100.00
64080;BME280;51042;49.696;10.808;2023-05-01T12:44:19;98291.53;;;12.42;100.00
64080;BME280;51042;49.696;10.808;2023-05-01T12:46:52;98283.34;;;12.29;100.00
64080;BME280;51042;49.696;10.808;2023-05-01T12:49:23;98292.31;;;12.20;100.00
64080;BME280;51042;49.696;10.808;2023-05-01T12:51:49;98282.19;;;12.17;100.00
64080;BME280;51042;49.696;10.808;2023-05-01T12:54:28;98279.88;;;12.16;100.00
64080;BME280;51042;49.696;10.808;2023-05-01T12:57:05;98282.38;;;12.23;100.00
64080;BME280;51042;49.696;10.808;2023-05-01T12:59:34;98276.88;;;12.23;100.00
64080;BME280;51042;49.696;10.808;2023-05-01T13:04:34;98288.06;;;12.28;100.00
64080;BME280;51042;49.696;10.808;2023-05-01T13:07:00;98281.16;;;12.46;100.00
64080;BME280;51042;49.696;10.808;2023-05-01T13:09:27;98284.16;;;12.60;100.00
64080;BME280;51042;49.696;10.808;2023-05-01T13:12:02;98283.28;;;12.73;100.00
64080;BME280;51042;49.696;10.808;2023-05-01T13:14:39;98277.09;;;12.59;100.00
64080;BME280;51042;49.696;10.808;2023-05-01T13:17:06;98278.69;;;12.39;100.00
64080;BME280;51042;49.696;10.808;2023-05-01T13:19:35;98285.78;;;12.27;100.00
64080;BME280;51042;49.696;10.808;2023-05-01T13:22:01;98281.38;;;12.30;100.00
64080;BME280;51042;49.696;10.808;2023-05-01T13:24:34;98284.19;;;12.39;100.00
64080;BME280;51042;49.696;10.808;2023-05-01T13:27:03;98288.00;;;12.41;100.00
64080;BME280;51042;49.696;10.808;2023-05-01T13:29:29;98280.00;;;12.56;100.00